Airfield :
LOGIN :

Register | Disclaimer

   EN    FR    IT 

 










Legend :    VFR   Marginal VFR   IFR   Intensive IFR   Very Intensive IFR
Visi :
Ceiling :
>= 8 km
>= 3000ft
5 to 8 km
1000 to 3000 ft
1500m to 5 km
500 to 1000 ft
800 to 1500m
200 to 500 ft
< 800m
< 200 ft
Symbols :   Thunderstorms  Fog  Heavy snow  Heavy precipitations  Wind > 20 kt
SIGMETs :     Misc.  Thunderstorms  Icing  Turbulence  Mountain Waves  Volcanic Ashes






- Airport Elevation : 284 ft


EGUW - RAF Wattisham

CURRENT METAR :
  • 142020Z 14005KT 9999 BKN037 BKN150 15/12 Q1015 NOSIG RMK BLU BLU

EXPIRED METARs :
  • 141950Z 13006KT 9999 SCT037 BKN150 15/12 Q1014 NOSIG RMK BLU BLU
  • 141920Z 04003KT 9999 SCT039 BKN150 16/10 Q1014 NOSIG RMK BLU BLU
  • 141850Z 03004KT 9999 FEW039 BKN150 17/10 Q1014 NOSIG RMK BLU BLU
  • 141820Z 01007KT 9999 SCT038 BKN150 17/10 Q1015 NOSIG RMK BLU BLU
  • 141750Z 34009KT 9999 FEW040 BKN160 17/09 Q1015 NOSIG RMK BLU BLU

TAF TAF EGUW
Valid from the 14 at 21:00 until the 15 at 02:00 UTC


141957Z 1421/1502 32005KT 9999 BKN045



MET'MAP, your aeronautical weather chart ! - Copyright ORBIFLY December 2007 - Disclaimer

ORBIFLY MET'MAP TEAM :

Programming & Development : Alexandra Zaïnal
Concept & original design : Baudouin d'Aumeries
Assistance for programming : Marc-Olivier Méhu
Technical & hardware support : Manuel Goepfert

Contact : metmap@orbifly.com




SOURCES & CREDITS :

   NOAA